Terminal Aerodrome Forecast
Issued by NWS

Home | Current Version | Previous Version | Text Only | Print | Product List | Glossary On
Versions: 1 2 3 4 5 6 7 8 9 10 11 12 13 14 15 16 17 18 19 20 21 22 23 24 25 26 27 28 29 30 31 32 33 34 35 36 37 38 39 40
000
FTUS43 KMKX 291727
TAFUES
TAF
KUES 291727Z 2918/3018 30010KT P6SM FEW040 SCT110
     FM292100 30010KT P6SM VCTS BKN050CB
     FM300200 26005KT P6SM SCT060
     FM301500 02005KT P6SM FEW040=

USA.gov is the U.S. government's official web portal to all federal, state and local government web resources and services.